Time;durP1;ratioP1;P1;durP2;ratioP2;P2;SDS_P1;SDS_P2;PMS_P1;PMS_P2;Temp;Humidity;BMP_temperature;BMP_pressure;BME280_temperature;BME280_humidity;BME280_pressure;Samples;Min_cycle;Max_cycle;Signal;HPM_P1;HPM_P2
2023/10/08 00:01:40;;;;;;;9.70;4.00;;;16.40;1.00;;;;;;5019288;28;20464;-77
2023/10/08 00:04:07;;;;;;;7.57;3.70;;;16.40;1.00;;;;;;5022312;28;20569;-77
2023/10/08 00:06:33;;;;;;;6.00;4.00;;;16.60;1.00;;;;;;5021747;28;20524;-79
2023/10/08 00:09:08;;;;;;;8.13;3.77;;;16.70;1.00;;;;;;5030998;28;20274;-76
2023/10/08 00:11:36;;;;;;;5.97;3.60;;;17.00;1.00;;;;;;5020326;28;20207;-76
2023/10/08 00:14:04;;;;;;;8.13;4.03;;;17.00;1.00;;;;;;5022315;28;20433;-78
2023/10/08 00:16:33;;;;;;;8.23;4.30;;;17.00;1.00;;;;;;5022566;28;20537;-77
2023/10/08 00:19:03;;;;;;;8.03;3.60;;;17.10;1.00;;;;;;5022088;28;20429;-77
2023/10/08 00:21:31;;;;;;;6.63;3.83;;;17.10;1.00;;;;;;5022977;28;20846;-74
2023/10/08 00:24:00;;;;;;;9.43;3.80;;;17.10;1.00;;;;;;5025222;28;20566;-76
2023/10/08 00:26:32;;;;;;;7.00;4.10;;;17.00;1.00;;;;;;5018516;28;20931;-74
2023/10/08 00:28:59;;;;;;;8.57;4.00;;;17.00;1.00;;;;;;5025546;28;20447;-77
2023/10/08 00:31:30;;;;;;;5.30;3.47;;;16.90;1.00;;;;;;5020383;28;20981;-76
2023/10/08 00:33:56;;;;;;;12.47;4.03;;;16.90;1.00;;;;;;5025878;28;20445;-76
2023/10/08 00:36:23;;;;;;;10.27;3.87;;;16.80;1.00;;;;;;5026603;28;20549;-75
2023/10/08 00:38:53;;;;;;;7.93;4.20;;;16.70;1.00;;;;;;5029101;28;20467;-76
2023/10/08 00:41:21;;;;;;;9.20;4.20;;;16.60;1.00;;;;;;5031376;28;20468;-76
2023/10/08 00:43:48;;;;;;;6.37;4.13;;;16.50;1.00;;;;;;5026283;28;20458;-77
2023/10/08 00:46:27;;;;;;;6.93;4.33;;;16.40;1.00;;;;;;5027537;28;20432;-75
2023/10/08 00:48:56;;;;;;;10.00;4.53;;;16.20;1.00;;;;;;5020821;28;20420;-77
2023/10/08 00:54:05;;;;;;;7.70;4.40;;;15.90;1.00;;;;;;5028508;28;20527;-76
2023/10/08 00:56:53;;;;;;;7.20;4.60;;;15.80;1.00;;;;;;5028347;28;20787;-76
2023/10/08 00:59:20;;;;;;;9.27;4.80;;;15.70;1.00;;;;;;5026830;28;20484;-76
2023/10/08 01:01:51;;;;;;;9.20;4.60;;;15.60;1.00;;;;;;5029492;28;20930;-77
2023/10/08 01:04:18;;;;;;;6.43;4.40;;;15.60;1.00;;;;;;5028823;28;20460;-76
2023/10/08 01:06:47;;;;;;;9.17;4.37;;;15.50;1.00;;;;;;5026793;28;20422;-78
2023/10/08 01:09:18;;;;;;;8.50;4.57;;;15.40;1.00;;;;;;5032275;28;20425;-76
2023/10/08 01:11:49;;;;;;;9.60;5.17;;;15.30;1.00;;;;;;5029628;28;20432;-76
2023/10/08 01:14:20;;;;;;;12.00;4.60;;;15.30;1.00;;;;;;5030786;28;20853;-76
2023/10/08 01:16:47;;;;;;;7.60;4.13;;;15.20;1.00;;;;;;5032626;28;20424;-76
2023/10/08 01:19:19;;;;;;;11.40;4.67;;;15.10;1.00;;;;;;5034316;28;20428;-77
2023/10/08 01:21:45;;;;;;;13.90;4.40;;;15.00;1.00;;;;;;5047653;28;20416;-76
2023/10/08 01:24:16;;;;;;;9.43;5.07;;;15.00;1.00;;;;;;5046806;28;20432;-75
2023/10/08 01:26:42;;;;;;;10.57;4.20;;;14.90;1.00;;;;;;5047686;28;20170;-75
2023/10/08 01:29:19;;;;;;;7.80;4.50;;;14.80;1.00;;;;;;5032035;28;20413;-76
2023/10/08 01:31:46;;;;;;;7.77;4.47;;;14.70;1.00;;;;;;5029519;28;20206;-75
2023/10/08 01:34:16;;;;;;;8.80;4.70;;;14.70;1.00;;;;;;5031008;28;20452;-76
2023/10/08 01:36:43;;;;;;;7.33;4.33;;;14.60;1.00;;;;;;5033244;28;20935;-76
2023/10/08 01:39:15;;;;;;;6.67;4.30;;;14.50;1.00;;;;;;5031789;28;20435;-78
2023/10/08 01:41:42;;;;;;;6.83;3.93;;;14.50;1.00;;;;;;5031661;28;20455;-75
2023/10/08 01:44:08;;;;;;;7.17;4.57;;;14.40;1.00;;;;;;5031101;28;20435;-77
2023/10/08 01:46:34;;;;;;;7.20;4.20;;;14.30;1.00;;;;;;5031597;28;20408;-75
2023/10/08 01:49:04;;;;;;;7.13;3.80;;;14.30;1.00;;;;;;5031856;28;20428;-76
2023/10/08 01:51:37;;;;;;;8.30;4.50;;;14.30;1.00;;;;;;5030888;28;20455;-76
2023/10/08 01:54:09;;;;;;;7.70;4.37;;;14.30;1.00;;;;;;5034420;28;20451;-76
2023/10/08 01:56:37;;;;;;;7.33;4.30;;;14.30;1.00;;;;;;5031737;28;20416;-76
2023/10/08 01:59:04;;;;;;;7.10;3.77;;;14.30;1.00;;;;;;5031662;28;20412;-76
2023/10/08 02:01:29;;;;;;;5.97;4.03;;;14.30;1.00;;;;;;5046388;28;21029;-76
2023/10/08 02:03:55;;;;;;;8.77;4.43;;;14.20;1.00;;;;;;5030676;28;20515;-76
2023/10/08 02:06:21;;;;;;;7.00;4.07;;;14.20;1.00;;;;;;5031227;28;20178;-76
2023/10/08 02:08:47;;;;;;;11.33;4.33;;;14.20;1.00;;;;;;5031715;28;20433;-75
2023/10/08 02:11:15;;;;;;;9.17;4.40;;;14.10;1.00;;;;;;5039771;28;20174;-77
2023/10/08 02:13:42;;;;;;;7.23;4.30;;;14.00;1.00;;;;;;5030316;28;20225;-77
2023/10/08 02:16:07;;;;;;;9.57;4.40;;;14.00;1.00;;;;;;5031393;28;20416;-77
2023/10/08 02:18:33;;;;;;;8.87;4.60;;;13.90;1.00;;;;;;5023138;28;20436;-76
2023/10/08 02:20:59;;;;;;;7.67;4.10;;;13.80;1.00;;;;;;5030942;28;20232;-76
2023/10/08 02:23:24;;;;;;;6.83;3.80;;;13.80;1.00;;;;;;5030073;28;20284;-76
2023/10/08 02:25:50;;;;;;;16.50;5.07;;;13.70;1.00;;;;;;5033344;28;20208;-76
2023/10/08 02:28:17;;;;;;;7.53;4.30;;;13.70;1.00;;;;;;5031625;28;20668;-76
2023/10/08 02:30:42;;;;;;;9.50;4.70;;;13.70;1.00;;;;;;5030954;28;20181;-76
2023/10/08 02:33:17;;;;;;;5.93;3.27;;;13.60;1.00;;;;;;5030450;28;20460;-76
2023/10/08 02:35:44;;;;;;;7.93;4.37;;;13.60;1.00;;;;;;5021779;28;20235;-75
2023/10/08 02:38:24;;;;;;;7.60;4.07;;;13.50;1.00;;;;;;5030283;28;20848;-75
2023/10/08 02:40:50;;;;;;;8.07;4.50;;;13.60;1.00;;;;;;5029032;28;20495;-76
2023/10/08 02:43:17;;;;;;;7.50;4.40;;;13.50;1.00;;;;;;5023937;28;22402;-76
2023/10/08 02:45:47;;;;;;;7.23;4.50;;;13.50;1.00;;;;;;5035777;28;20428;-75
2023/10/08 02:48:13;;;;;;;11.03;4.37;;;13.50;1.00;;;;;;5023940;28;20519;-74
2023/10/08 02:50:45;;;;;;;6.43;3.90;;;13.50;1.00;;;;;;5023902;28;20540;-77
2023/10/08 02:53:11;;;;;;;7.00;4.40;;;13.50;1.00;;;;;;5021497;28;20881;-77
2023/10/08 02:55:46;;;;;;;6.00;4.33;;;13.40;1.00;;;;;;5026711;28;20424;-75
2023/10/08 02:58:16;;;;;;;7.30;4.50;;;13.40;1.00;;;;;;5029623;28;20427;-76
2023/10/08 03:00:46;;;;;;;9.03;4.73;;;13.40;1.00;;;;;;5026040;28;21041;-76
2023/10/08 03:03:16;;;;;;;6.70;4.70;;;13.40;1.00;;;;;;5025882;28;20907;-78
2023/10/08 03:05:52;;;;;;;8.63;4.60;;;13.30;1.00;;;;;;5024393;28;20425;-76
2023/10/08 03:08:22;;;;;;;8.47;4.10;;;13.30;1.00;;;;;;5025527;28;20424;-76
2023/10/08 03:10:55;;;;;;;10.40;4.53;;;13.30;1.00;;;;;;5021845;28;20439;-75
2023/10/08 03:13:22;;;;;;;8.50;4.73;;;13.00;1.00;;;;;;5025573;28;20441;-76
2023/10/08 03:18:35;;;;;;;7.70;4.23;;;13.20;1.00;;;;;;5036970;28;20522;-75
2023/10/08 03:21:06;;;;;;;9.83;4.57;;;13.20;1.00;;;;;;5035220;28;20522;-74
2023/10/08 03:23:36;;;;;;;6.40;3.60;;;13.10;1.00;;;;;;5029796;28;20452;-76
2023/10/08 03:26:10;;;;;;;11.90;4.80;;;13.10;1.00;;;;;;5030677;28;20958;-76
2023/10/08 03:28:37;;;;;;;8.27;4.50;;;13.10;1.00;;;;;;5029619;28;21423;-76
2023/10/08 03:31:13;;;;;;;5.90;4.33;;;13.10;1.00;;;;;;5036615;28;20416;-77
2023/10/08 03:33:39;;;;;;;7.43;4.43;;;13.00;1.00;;;;;;5029728;28;20428;-76
2023/10/08 03:36:14;;;;;;;7.77;4.37;;;13.00;1.00;;;;;;5027605;28;20543;-77
2023/10/08 03:38:44;;;;;;;6.60;4.10;;;13.00;1.00;;;;;;5027768;28;20432;-76
2023/10/08 03:41:16;;;;;;;9.40;4.10;;;13.00;1.00;;;;;;5027615;28;20470;-74
2023/10/08 03:44:01;;;;;;;9.57;4.67;;;13.00;1.00;;;;;;5021562;28;20551;-76
2023/10/08 03:46:31;;;;;;;8.77;4.40;;;12.90;1.00;;;;;;5027562;28;20514;-76
2023/10/08 03:48:57;;;;;;;7.50;4.47;;;12.90;1.00;;;;;;5023531;28;20460;-76
2023/10/08 03:51:27;;;;;;;7.47;4.40;;;12.90;1.00;;;;;;5024821;28;20549;-77
2023/10/08 03:54:06;;;;;;;8.83;4.53;;;12.80;1.00;;;;;;5023170;28;20453;-75
2023/10/08 03:56:32;;;;;;;7.80;4.70;;;12.90;1.00;;;;;;5019079;28;20444;-76
2023/10/08 03:59:03;;;;;;;8.13;4.77;;;12.80;1.00;;;;;;5027725;28;20787;-76
2023/10/08 04:01:32;;;;;;;8.87;4.50;;;12.90;1.00;;;;;;5020259;28;20203;-75
2023/10/08 04:03:58;;;;;;;7.70;4.47;;;12.90;1.00;;;;;;5029491;28;20532;-76
2023/10/08 04:06:30;;;;;;;9.27;4.97;;;12.90;1.00;;;;;;5027969;28;20456;-76
2023/10/08 04:11:35;;;;;;;8.73;4.63;;;12.80;1.00;;;;;;5027888;28;20922;-77
2023/10/08 04:14:04;;;;;;;7.47;4.40;;;12.80;1.00;;;;;;5028168;28;20435;-76
2023/10/08 04:16:31;;;;;;;8.60;4.10;;;12.80;1.00;;;;;;5022345;28;20428;-76
2023/10/08 04:18:57;;;;;;;7.93;4.70;;;12.80;1.00;;;;;;5023647;28;20455;-76
2023/10/08 04:21:27;;;;;;;8.10;4.77;;;12.80;1.00;;;;;;5028021;28;20866;-75
2023/10/08 04:23:57;;;;;;;9.60;4.50;;;12.80;1.00;;;;;;5023496;28;20656;-76
2023/10/08 04:26:25;;;;;;;7.27;4.50;;;12.80;1.00;;;;;;5027739;28;20435;-75
2023/10/08 04:28:57;;;;;;;7.87;4.83;;;12.80;1.00;;;;;;5027669;28;20523;-75
2023/10/08 04:31:28;;;;;;;7.50;4.50;;;12.80;1.00;;;;;;5027731;28;20515;-75
2023/10/08 04:33:54;;;;;;;7.47;4.70;;;12.80;1.00;;;;;;5028574;28;20818;-76
2023/10/08 04:36:20;;;;;;;6.53;4.47;;;12.80;1.00;;;;;;5024651;28;20429;-76
2023/10/08 04:38:54;;;;;;;11.00;5.20;;;12.80;1.00;;;;;;5027093;28;20424;-76
2023/10/08 04:41:19;;;;;;;6.17;4.20;;;12.80;1.00;;;;;;5027152;28;20472;-75
2023/10/08 04:43:45;;;;;;;8.37;4.77;;;12.90;1.00;;;;;;5019607;28;20857;-76
2023/10/08 04:46:33;;;;;;;8.50;4.67;;;12.80;1.00;;;;;;5026463;28;20185;-75
2023/10/08 04:49:04;;;;;;;7.53;4.60;;;12.80;1.00;;;;;;5010065;28;20432;-75
2023/10/08 04:51:34;;;;;;;14.80;4.67;;;12.70;1.00;;;;;;5018285;28;20524;-78
2023/10/08 04:54:00;;;;;;;11.00;5.03;;;12.70;1.00;;;;;;5025877;28;20439;-76
2023/10/08 04:56:28;;;;;;;6.80;4.60;;;12.70;1.00;;;;;;5027543;28;20441;-78
2023/10/08 04:58:53;;;;;;;7.00;4.50;;;12.70;1.00;;;;;;5027234;28;20814;-75
2023/10/08 05:01:38;;;;;;;7.40;4.20;;;12.70;1.00;;;;;;5028850;28;20502;-76
2023/10/08 05:09:10;;;;;;;8.90;4.77;;;12.60;1.00;;;;;;5029943;28;20811;-74
2023/10/08 05:11:46;;;;;;;6.80;4.07;;;12.60;1.00;;;;;;5025900;28;20866;-76
2023/10/08 05:17:11;;;;;;;9.90;4.97;;;12.60;1.00;;;;;;5020689;28;20659;-77
2023/10/08 05:25:07;;;;;;;8.20;5.03;;;12.50;1.00;;;;;;5027925;28;20995;-75
2023/10/08 05:33:12;;;;;;;11.53;6.13;;;12.60;1.00;;;;;;5021340;28;20460;-76
2023/10/08 05:49:01;;;;;;;9.50;4.90;;;12.70;1.00;;;;;;5031541;28;20420;-75
2023/10/08 06:05:22;;;;;;;7.27;4.60;;;12.80;1.00;;;;;;5026351;28;20448;-78
2023/10/08 06:18:27;;;;;;;9.27;4.53;;;13.00;1.00;;;;;;5025892;28;20526;-75
2023/10/08 06:20:59;;;;;;;10.83;5.30;;;13.10;1.00;;;;;;5029506;28;20479;-75
2023/10/08 06:23:28;;;;;;;9.93;5.37;;;13.20;1.00;;;;;;5029615;28;20538;-74
2023/10/08 06:25:58;;;;;;;13.40;5.33;;;13.30;1.00;;;;;;5031812;28;20541;-75
2023/10/08 06:28:25;;;;;;;7.30;4.83;;;13.40;1.00;;;;;;5029762;28;20949;-77
2023/10/08 06:30:54;;;;;;;9.30;5.33;;;13.50;1.00;;;;;;5032748;28;20440;-75
2023/10/08 06:33:20;;;;;;;9.97;6.40;;;13.60;1.00;;;;;;5030481;28;20479;-75
2023/10/08 06:36:01;;;;;;;11.40;6.30;;;13.70;1.00;;;;;;5044717;28;20776;-75
2023/10/08 06:38:33;;;;;;;13.80;7.70;;;13.80;1.00;;;;;;5018595;28;20868;-76
2023/10/08 06:41:09;;;;;;;9.57;6.27;;;14.00;1.00;;;;;;5045288;28;20853;-75
2023/10/08 06:43:38;;;;;;;10.00;6.40;;;14.20;1.00;;;;;;5026754;28;20463;-77
2023/10/08 06:46:07;;;;;;;9.20;6.00;;;14.30;1.00;;;;;;5022447;28;20455;-75
2023/10/08 06:48:34;;;;;;;10.90;6.53;;;14.50;1.00;;;;;;5015867;28;20444;-76
2023/10/08 06:51:07;;;;;;;12.63;6.40;;;14.60;1.00;;;;;;5030059;28;20467;-76
2023/10/08 06:53:34;;;;;;;11.57;6.67;;;14.70;1.00;;;;;;5029456;28;20447;-75
2023/10/08 06:56:04;;;;;;;13.23;6.10;;;14.70;1.00;;;;;;5030078;28;20432;-76
2023/10/08 06:58:34;;;;;;;11.67;6.63;;;14.80;1.00;;;;;;5027042;28;20440;-78
2023/10/08 07:01:04;;;;;;;8.23;5.90;;;14.90;1.00;;;;;;5032908;28;20468;-76
2023/10/08 07:03:33;;;;;;;11.17;5.17;;;15.10;1.00;;;;;;5028096;28;20453;-79
2023/10/08 07:06:02;;;;;;;11.47;5.90;;;15.20;1.00;;;;;;5028802;28;20551;-74
2023/10/08 07:08:32;;;;;;;10.17;6.57;;;15.30;1.00;;;;;;5035589;28;20433;-76
2023/10/08 07:11:11;;;;;;;12.13;6.20;;;15.40;1.00;;;;;;5045172;28;20447;-77
2023/10/08 07:13:39;;;;;;;11.33;6.13;;;15.40;1.00;;;;;;5031105;28;20966;-74
2023/10/08 07:16:06;;;;;;;12.13;5.90;;;15.60;1.00;;;;;;5030172;28;20409;-78
2023/10/08 07:18:33;;;;;;;13.93;6.73;;;15.70;1.00;;;;;;5045818;28;20903;-76
2023/10/08 07:21:11;;;;;;;10.13;6.10;;;15.80;1.00;;;;;;5030929;28;20570;-76
2023/10/08 07:23:51;;;;;;;11.83;5.90;;;15.90;1.00;;;;;;5026941;28;20448;-76
2023/10/08 07:26:23;;;;;;;10.47;6.00;;;16.20;1.00;;;;;;5029840;28;20404;-75
2023/10/08 07:28:51;;;;;;;11.17;5.27;;;16.50;1.00;;;;;;5029452;28;20436;-78
2023/10/08 07:31:22;;;;;;;14.50;7.47;;;16.80;1.00;;;;;;5035221;28;20973;-75
2023/10/08 07:34:15;;;;;;;15.50;8.20;;;17.10;1.00;;;;;;5029765;28;20463;-76
2023/10/08 07:36:41;;;;;;;15.90;9.67;;;17.30;1.00;;;;;;5029307;28;20531;-76
2023/10/08 07:39:09;;;;;;;14.97;9.30;;;17.50;1.00;;;;;;5029827;28;20440;-77
2023/10/08 07:41:34;;;;;;;17.30;9.43;;;17.80;1.00;;;;;;5034999;28;20878;-76
2023/10/08 07:44:00;;;;;;;13.00;8.20;;;17.80;1.00;;;;;;5029953;28;20523;-75
2023/10/08 07:46:26;;;;;;;13.23;7.00;;;18.00;1.00;;;;;;5029099;28;20723;-76
2023/10/08 07:48:52;;;;;;;8.97;6.50;;;18.30;1.00;;;;;;5028038;28;20182;-76
2023/10/08 07:51:24;;;;;;;12.73;7.00;;;18.60;1.00;;;;;;5029075;28;20253;-78
2023/10/08 07:53:54;;;;;;;14.50;7.43;;;18.80;1.00;;;;;;5029312;28;20950;-76
2023/10/08 07:56:20;;;;;;;12.27;6.35;;;18.90;1.00;;;;;;5028415;28;20416;-75
2023/10/08 07:58:47;;;;;;;15.30;6.80;;;19.20;1.00;;;;;;5028571;28;20189;-75
2023/10/08 08:01:13;;;;;;;14.40;6.80;;;19.30;1.00;;;;;;5024943;28;21028;-76
2023/10/08 08:03:44;;;;;;;11.83;7.00;;;19.50;1.00;;;;;;5025109;28;20455;-75
2023/10/08 08:06:10;;;;;;;10.20;6.47;;;19.60;1.00;;;;;;5022605;28;20942;-76
2023/10/08 08:08:38;;;;;;;11.70;6.20;;;19.90;1.00;;;;;;5045498;28;20478;-75
2023/10/08 08:11:11;;;;;;;10.60;6.20;;;20.20;1.00;;;;;;5028798;28;20315;-75
2023/10/08 08:13:38;;;;;;;13.60;6.27;;;20.50;1.00;;;;;;5030264;28;20493;-77
2023/10/08 08:16:16;;;;;;;10.83;6.13;;;20.80;1.00;;;;;;5029362;28;20413;-75
2023/10/08 08:18:51;;;;;;;12.03;6.63;;;21.00;1.00;;;;;;5029825;28;20412;-77
2023/10/08 08:21:19;;;;;;;10.57;5.90;;;21.20;1.00;;;;;;5023249;28;20463;-75
2023/10/08 08:23:49;;;;;;;12.40;5.80;;;21.20;1.00;;;;;;5029795;28;20424;-74
2023/10/08 08:26:37;;;;;;;11.07;5.90;;;21.10;1.00;;;;;;5029669;28;20465;-76
2023/10/08 08:29:02;;;;;;;10.50;5.70;;;21.10;1.00;;;;;;5044837;28;20912;-74
2023/10/08 08:31:35;;;;;;;12.03;6.57;;;21.60;1.00;;;;;;5029373;28;20500;-75
2023/10/08 08:34:02;;;;;;;12.17;6.33;;;22.30;1.00;;;;;;5029390;28;20259;-75
2023/10/08 08:36:31;;;;;;;10.60;5.83;;;22.90;1.00;;;;;;5029314;28;20422;-75
2023/10/08 08:38:57;;;;;;;8.67;5.43;;;23.20;1.00;;;;;;5029010;28;20458;-75
2023/10/08 08:41:23;;;;;;;8.50;5.63;;;23.00;1.00;;;;;;5029456;28;20491;-73
2023/10/08 08:43:59;;;;;;;13.40;6.57;;;22.70;1.00;;;;;;5029413;28;20559;-77
2023/10/08 08:46:30;;;;;;;9.90;6.07;;;22.40;1.00;;;;;;5029391;28;20671;-75
2023/10/08 08:48:57;;;;;;;11.10;6.60;;;22.50;1.00;;;;;;5029155;28;20452;-75
2023/10/08 08:51:23;;;;;;;10.30;6.10;;;22.30;1.00;;;;;;5029179;28;20934;-75
2023/10/08 08:53:49;;;;;;;10.27;6.00;;;22.40;1.00;;;;;;5029296;28;20436;-76
2023/10/08 08:56:15;;;;;;;19.40;5.97;;;22.70;1.00;;;;;;5029305;28;20185;-76
2023/10/08 08:58:43;;;;;;;13.37;5.97;;;22.90;1.00;;;;;;5028777;28;20430;-77
2023/10/08 09:01:13;;;;;;;12.60;6.63;;;22.90;1.00;;;;;;5028623;28;20590;-75
2023/10/08 09:03:39;;;;;;;10.50;6.10;;;23.00;1.00;;;;;;5029422;28;20527;-74
2023/10/08 09:06:05;;;;;;;11.60;6.63;;;22.90;1.00;;;;;;5028430;28;20420;-74
2023/10/08 09:08:35;;;;;;;11.40;6.20;;;22.60;1.00;;;;;;5028744;28;20502;-74
2023/10/08 09:11:01;;;;;;;10.00;5.70;;;22.30;1.00;;;;;;5028939;28;20432;-76
2023/10/08 09:13:28;;;;;;;10.03;5.67;;;22.00;1.00;;;;;;5029256;28;20522;-76
2023/10/08 09:16:14;;;;;;;11.47;6.03;;;22.00;1.00;;;;;;5029094;28;20423;-74
2023/10/08 09:18:45;;;;;;;9.40;5.40;;;22.10;1.00;;;;;;5025966;28;20438;-75
2023/10/08 09:21:13;;;;;;;8.47;5.70;;;22.10;1.00;;;;;;5033215;28;20480;-76
2023/10/08 09:23:50;;;;;;;10.20;5.90;;;22.00;1.00;;;;;;5030522;28;20443;-74
2023/10/08 09:26:18;;;;;;;10.57;5.90;;;21.80;1.00;;;;;;5028235;28;20432;-76
2023/10/08 09:28:48;;;;;;;9.27;5.33;;;21.80;1.00;;;;;;5029073;28;20428;-75
2023/10/08 09:31:14;;;;;;;9.33;5.83;;;21.70;1.00;;;;;;5030492;28;20439;-73
2023/10/08 09:33:41;;;;;;;9.27;5.67;;;21.60;1.00;;;;;;5024155;28;20463;-75
2023/10/08 09:36:10;;;;;;;10.10;5.33;;;21.70;1.00;;;;;;5028565;28;20951;-76
2023/10/08 09:38:36;;;;;;;9.63;5.47;;;21.60;1.00;;;;;;5032477;28;20428;-75
2023/10/08 09:41:02;;;;;;;8.70;5.23;;;21.40;1.00;;;;;;5032408;28;20463;-76
2023/10/08 09:43:35;;;;;;;10.57;5.33;;;21.30;1.00;;;;;;5038326;28;20941;-75
2023/10/08 09:46:18;;;;;;;11.33;5.77;;;21.30;1.00;;;;;;5032370;28;20490;-75
2023/10/08 09:48:53;;;;;;;10.23;5.80;;;21.30;1.00;;;;;;5031875;28;20763;-77
2023/10/08 09:51:20;;;;;;;10.60;5.63;;;21.30;1.00;;;;;;5030069;28;20418;-76
2023/10/08 09:54:00;;;;;;;9.70;5.40;;;21.20;1.00;;;;;;5036021;28;20431;-74
2023/10/08 09:56:28;;;;;;;14.50;6.80;;;21.00;1.00;;;;;;5025412;28;20403;-75
2023/10/08 09:58:54;;;;;;;10.70;7.30;;;21.20;1.00;;;;;;5029256;28;20546;-75
2023/10/08 10:01:22;;;;;;;10.20;6.57;;;21.40;1.00;;;;;;5031039;28;20582;-75
2023/10/08 10:03:49;;;;;;;10.70;6.60;;;21.70;1.00;;;;;;5035757;28;20232;-77
2023/10/08 10:06:15;;;;;;;10.13;6.13;;;21.70;1.00;;;;;;5031209;28;20427;-76
2023/10/08 10:08:45;;;;;;;10.93;6.30;;;21.80;1.00;;;;;;5031236;28;21003;-75
2023/10/08 10:11:11;;;;;;;10.07;6.17;;;21.80;1.00;;;;;;5031442;28;20408;-76
2023/10/08 10:13:44;;;;;;;8.93;6.03;;;22.00;1.00;;;;;;5032350;28;20466;-77
2023/10/08 10:16:18;;;;;;;9.20;5.07;;;22.20;1.00;;;;;;5030345;28;20420;-75
2023/10/08 10:18:46;;;;;;;12.23;6.03;;;22.80;1.00;;;;;;5031834;28;21011;-76
2023/10/08 10:21:15;;;;;;;10.63;6.00;;;23.30;1.00;;;;;;5047646;28;20470;-76
2023/10/08 10:23:50;;;;;;;9.07;5.73;;;23.80;1.00;;;;;;5031724;28;20463;-76
2023/10/08 10:26:30;;;;;;;10.83;5.67;;;24.40;1.00;;;;;;5031259;28;20414;-75
2023/10/08 10:29:11;;;;;;;11.60;5.60;;;24.80;1.00;;;;;;5031332;28;20435;-75
2023/10/08 10:31:38;;;;;;;8.40;5.33;;;25.00;1.00;;;;;;5043964;28;20818;-77
2023/10/08 10:34:08;;;;;;;9.40;5.13;;;24.90;1.00;;;;;;5030177;28;21019;-75
2023/10/08 10:36:35;;;;;;;8.47;5.20;;;24.70;1.00;;;;;;5034780;28;20426;-76
2023/10/08 10:39:02;;;;;;;11.00;5.50;;;24.60;1.00;;;;;;5033922;28;20451;-75
2023/10/08 10:41:27;;;;;;;10.97;6.10;;;24.40;1.00;;;;;;5028763;28;20451;-76
2023/10/08 10:43:53;;;;;;;8.20;5.30;;;24.60;1.00;;;;;;5030750;28;20513;-74
2023/10/08 10:46:52;;;;;;;8.90;5.40;;;24.90;1.00;;;;;;5030636;28;20544;-75
2023/10/08 10:49:53;;;;;;;13.13;6.20;;;25.50;1.00;;;;;;5033668;28;20197;-76
2023/10/08 10:51:59;;;;;;;10.90;5.30;;;25.90;1.00;;;;;;5032496;28;20459;-77
2023/10/08 10:54:25;;;;;;;8.70;5.20;;;26.20;1.00;;;;;;5030597;28;20420;-76
2023/10/08 10:57:03;;;;;;;8.70;5.40;;;26.40;1.00;;;;;;5046436;28;20183;-77
2023/10/08 10:59:37;;;;;;;9.37;5.90;;;26.80;1.00;;;;;;5030891;28;20174;-75
2023/10/08 11:02:20;;;;;;;6.63;4.63;;;26.90;1.00;;;;;;5018500;28;20467;-73
2023/10/08 11:04:49;;;;;;;8.50;5.10;;;27.50;1.00;;;;;;5027103;28;20424;-76
2023/10/08 11:07:20;;;;;;;10.43;5.80;;;27.40;1.00;;;;;;5027151;28;20277;-77
2023/10/08 11:09:55;;;;;;;9.93;5.60;;;27.40;1.00;;;;;;5029444;28;20185;-76
2023/10/08 11:12:32;;;;;;;10.53;5.47;;;27.10;1.00;;;;;;5044522;28;20219;-75
2023/10/08 11:14:58;;;;;;;17.93;6.33;;;27.10;1.00;;;;;;5024619;28;20184;-78
2023/10/08 11:17:29;;;;;;;8.53;5.60;;;27.50;1.00;;;;;;5029406;28;20714;-77
2023/10/08 11:19:54;;;;;;;7.97;5.20;;;28.10;1.00;;;;;;5024634;28;20674;-76
2023/10/08 11:22:22;;;;;;;9.00;5.07;;;28.20;1.00;;;;;;5028830;28;20228;-75
2023/10/08 11:24:48;;;;;;;10.97;5.20;;;28.00;1.00;;;;;;5027473;28;20191;-76
2023/10/08 11:27:28;;;;;;;8.00;4.60;;;28.00;1.00;;;;;;5027876;28;20193;-76
2023/10/08 11:29:59;;;;;;;7.30;4.70;;;28.10;1.00;;;;;;5025998;28;20246;-74
2023/10/08 11:32:26;;;;;;;9.80;5.07;;;28.40;1.00;;;;;;5025645;28;20196;-76
2023/10/08 11:34:59;;;;;;;9.20;5.13;;;29.00;1.00;;;;;;5029617;28;20176;-77
2023/10/08 11:37:29;;;;;;;12.15;5.38;;;30.30;1.00;;;;;;5024239;28;20226;-75
2023/10/08 11:39:58;;;;;;;10.15;4.70;;;32.20;1.00;;;;;;5025940;28;20559;-75
2023/10/08 11:42:46;;;;;;;12.93;5.43;;;35.20;1.00;;;;;;5026873;28;20263;-75
2023/10/08 11:45:26;;;;;;;12.10;4.32;;;35.90;1.00;;;;;;5015890;28;20656;-75
2023/10/08 11:48:03;;;;;;;10.95;5.35;;;37.30;1.00;;;;;;5021843;28;20185;-76
2023/10/08 11:50:32;;;;;;;8.52;4.47;;;37.70;1.00;;;;;;5028603;28;20169;-76
2023/10/08 11:53:05;;;;;;;8.50;4.80;;;37.70;1.00;;;;;;5027016;28;20201;-75
2023/10/08 11:55:35;;;;;;;12.32;4.75;;;37.70;1.00;;;;;;5026155;28;20173;-74
2023/10/08 11:58:10;;;;;;;6.68;4.47;;;38.30;1.00;;;;;;5029690;28;20228;-76
2023/10/08 12:00:46;;;;;;;9.05;4.90;;;38.90;1.00;;;;;;5028972;28;20197;-74
2023/10/08 12:03:18;;;;;;;7.78;4.60;;;39.10;1.00;;;;;;5028685;28;21116;-74
2023/10/08 12:05:48;;;;;;;10.93;4.78;;;39.30;1.00;;;;;;5029114;28;20180;-77
2023/10/08 12:08:20;;;;;;;13.68;5.03;;;39.80;1.00;;;;;;5028375;28;20173;-79
2023/10/08 12:10:47;;;;;;;10.73;5.00;;;40.10;1.00;;;;;;5028211;28;20174;-74
2023/10/08 12:13:16;;;;;;;8.02;4.43;;;39.50;1.00;;;;;;5028093;28;20320;-75
2023/10/08 12:15:44;;;;;;;7.85;4.90;;;39.20;1.00;;;;;;5029045;28;20276;-74
2023/10/08 12:18:24;;;;;;;13.23;4.97;;;38.50;1.00;;;;;;5028956;28;20197;-75
2023/10/08 12:20:50;;;;;;;11.77;4.70;;;38.50;1.00;;;;;;5028838;28;20283;-74
2023/10/08 12:23:25;;;;;;;8.05;4.60;;;38.50;1.00;;;;;;5029152;28;20201;-75
2023/10/08 12:25:55;;;;;;;10.77;4.80;;;39.00;1.00;;;;;;5029106;28;20185;-75
2023/10/08 12:28:23;;;;;;;7.80;5.15;;;39.40;1.00;;;;;;5028914;28;20266;-74
2023/10/08 12:30:52;;;;;;;9.73;4.93;;;39.50;1.00;;;;;;5033229;28;20196;-74
2023/10/08 12:33:19;;;;;;;8.45;4.85;;;40.20;1.00;;;;;;5031457;28;20576;-75
2023/10/08 12:35:48;;;;;;;7.95;4.70;;;40.50;1.00;;;;;;5028216;28;20208;-76
2023/10/08 12:38:14;;;;;;;13.20;4.60;;;40.50;1.00;;;;;;5028329;28;20777;-74
2023/10/08 12:40:52;;;;;;;6.72;4.72;;;40.60;1.00;;;;;;5028639;28;20201;-77
2023/10/08 12:43:19;;;;;;;12.25;4.95;;;39.90;1.00;;;;;;5029030;28;20262;-75
2023/10/08 12:45:52;;;;;;;7.38;4.65;;;39.30;1.00;;;;;;5026498;28;20200;-75
2023/10/08 12:48:27;;;;;;;10.77;5.05;;;38.90;1.00;;;;;;5022068;28;20234;-76
2023/10/08 12:50:56;;;;;;;15.35;4.93;;;38.90;1.00;;;;;;5028994;28;20173;-73
2023/10/08 12:53:38;;;;;;;7.93;4.78;;;39.30;1.00;;;;;;5028562;28;20270;-77
2023/10/08 12:56:05;;;;;;;10.75;5.57;;;39.60;1.00;;;;;;5021506;28;20655;-75
2023/10/08 12:58:41;;;;;;;12.05;4.85;;;39.90;1.00;;;;;;5028918;28;20591;-75
2023/10/08 13:01:17;;;;;;;10.70;5.03;;;40.20;1.00;;;;;;5027243;28;20671;-76
2023/10/08 13:03:49;;;;;;;6.72;4.90;;;39.50;1.00;;;;;;5024347;28;20916;-74
2023/10/08 13:06:28;;;;;;;8.38;4.70;;;38.70;1.00;;;;;;5031211;28;20173;-76
2023/10/08 13:08:54;;;;;;;8.02;4.60;;;37.90;1.00;;;;;;5027510;28;20639;-74
2023/10/08 13:11:24;;;;;;;9.48;5.05;;;37.30;1.00;;;;;;5028778;28;20227;-74
2023/10/08 13:13:51;;;;;;;13.45;4.80;;;36.20;1.00;;;;;;5028209;28;20197;-74
2023/10/08 13:16:17;;;;;;;12.10;4.95;;;35.80;1.00;;;;;;5026922;28;20307;-76
2023/10/08 13:18:43;;;;;;;7.97;4.60;;;35.90;1.00;;;;;;5025987;28;20174;-76
2023/10/08 13:21:09;;;;;;;7.93;4.93;;;36.00;1.00;;;;;;5033954;28;20200;-75
2023/10/08 13:23:35;;;;;;;7.85;4.90;;;36.30;1.00;;;;;;5021242;28;20200;-76
2023/10/08 13:26:06;;;;;;;11.77;5.30;;;36.30;1.00;;;;;;5028470;28;20281;-77
2023/10/08 13:28:33;;;;;;;12.43;5.20;;;36.40;1.00;;;;;;5028091;28;20185;-75
2023/10/08 13:31:00;;;;;;;11.18;4.78;;;35.70;1.00;;;;;;5024272;28;20184;-74
2023/10/08 13:33:26;;;;;;;12.23;4.90;;;35.40;1.00;;;;;;5027924;28;20216;-76
2023/10/08 13:35:52;;;;;;;7.15;4.70;;;35.20;1.00;;;;;;5027804;28;20268;-76
2023/10/08 13:38:19;;;;;;;8.23;5.13;;;34.60;1.00;;;;;;5028801;28;20695;-75
2023/10/08 13:41:03;;;;;;;9.40;5.10;;;34.10;1.00;;;;;;5031500;28;20200;-76
2023/10/08 13:43:36;;;;;;;12.10;4.90;;;33.90;1.00;;;;;;5028433;28;20193;-74
2023/10/08 13:46:09;;;;;;;14.13;5.25;;;33.70;1.00;;;;;;5029045;28;20181;-77
2023/10/08 13:48:37;;;;;;;8.88;4.63;;;33.00;1.00;;;;;;5031002;28;20177;-75
2023/10/08 13:51:04;;;;;;;12.30;5.63;;;32.30;1.00;;;;;;5029394;28;20184;-75
2023/10/08 13:53:33;;;;;;;10.70;5.30;;;32.10;1.00;;;;;;5028594;28;20663;-75
2023/10/08 13:56:04;;;;;;;10.60;5.35;;;32.00;1.00;;;;;;5041944;28;20177;-76
2023/10/08 13:58:30;;;;;;;8.23;5.00;;;31.90;1.00;;;;;;5029398;28;20231;-77
2023/10/08 14:01:00;;;;;;;13.00;5.03;;;31.80;1.00;;;;;;5028289;28;20209;-72
2023/10/08 14:03:31;;;;;;;14.55;5.18;;;31.20;1.00;;;;;;5028090;28;20199;-73
2023/10/08 14:06:01;;;;;;;14.95;5.07;;;30.90;1.00;;;;;;5027565;28;20185;-75
2023/10/08 14:08:28;;;;;;;12.18;5.70;;;30.50;1.00;;;;;;5029458;28;20213;-76
2023/10/08 14:11:00;;;;;;;8.43;5.10;;;30.10;1.00;;;;;;5031567;28;20173;-73
2023/10/08 14:13:27;;;;;;;10.48;5.30;;;29.90;1.00;;;;;;5036016;28;20247;-76